createdAt,value
2023-05-14T00:00:17.119Z,94.77
2023-05-14T00:01:17.996Z,94.77
2023-05-14T00:02:18.952Z,94.67
2023-05-14T00:03:19.842Z,94.67
2023-05-14T00:04:20.752Z,94.77
2023-05-14T00:05:21.610Z,94.77
2023-05-14T00:06:22.471Z,94.77
2023-05-14T00:07:23.350Z,94.77
2023-05-14T00:08:24.221Z,94.77
2023-05-14T00:09:25.105Z,94.77
2023-05-14T00:10:26.007Z,94.77
2023-05-14T00:11:26.861Z,94.67
2023-05-14T00:12:27.728Z,94.77
2023-05-14T00:13:28.625Z,94.98
2023-05-14T00:14:29.524Z,94.98
2023-05-14T00:15:31.790Z,95.08
2023-05-14T00:16:30.926Z,94.98
2023-05-14T00:17:31.852Z,95.08
2023-05-14T00:18:32.768Z,95.12
2023-05-14T00:19:33.614Z,94.92
2023-05-14T00:20:34.528Z,94.92
2023-05-14T00:21:35.396Z,94.92
2023-05-14T00:22:36.267Z,94.92
2023-05-14T00:23:37.160Z,94.92
2023-05-14T00:24:38.046Z,94.92
2023-05-14T00:25:38.924Z,95.02
2023-05-14T00:26:39.824Z,95.02
2023-05-14T00:27:40.725Z,95.12
2023-05-14T00:28:41.590Z,95.23
2023-05-14T00:29:42.519Z,95.23
2023-05-14T00:30:43.390Z,95.23
2023-05-14T00:31:44.369Z,95.23
2023-05-14T00:32:44.822Z,95.23
2023-05-14T00:33:45.666Z,95.23
2023-05-14T00:34:46.562Z,95.23
2023-05-14T00:35:47.459Z,95.37
2023-05-14T00:36:48.330Z,95.37
2023-05-14T00:37:49.223Z,95.48
2023-05-14T00:38:50.101Z,95.48
2023-05-14T00:39:51.048Z,95.48
2023-05-14T00:40:51.933Z,95.48
2023-05-14T00:41:52.452Z,95.48
2023-05-14T00:42:53.302Z,95.58
2023-05-14T00:43:54.177Z,95.78
2023-05-14T00:44:55.067Z,95.78
2023-05-14T00:45:55.923Z,95.99
2023-05-14T00:46:56.836Z,96.09
2023-05-14T00:47:57.763Z,96.20
2023-05-14T00:48:58.613Z,96.20
2023-05-14T00:49:59.479Z,96.09
2023-05-14T00:51:00.368Z,96.09
2023-05-14T00:52:01.252Z,96.09
2023-05-14T00:53:02.128Z,96.09
2023-05-14T00:54:03.019Z,96.20
2023-05-14T00:55:03.893Z,96.20
2023-05-14T00:56:04.762Z,96.09
2023-05-14T00:57:05.639Z,96.09
2023-05-14T00:58:06.511Z,95.89
2023-05-14T00:59:07.392Z,95.89
2023-05-14T01:00:08.298Z,95.78
2023-05-14T01:01:09.192Z,95.68
2023-05-14T01:02:10.063Z,95.68
2023-05-14T01:03:11.007Z,95.58
2023-05-14T01:04:11.890Z,95.68
2023-05-14T01:05:12.782Z,95.78
2023-05-14T01:06:13.679Z,95.89
2023-05-14T01:07:14.555Z,95.99
2023-05-14T01:08:15.429Z,96.34
2023-05-14T01:09:16.326Z,96.66
2023-05-14T01:10:17.236Z,96.55
2023-05-14T01:11:18.132Z,96.55
2023-05-14T01:12:19.036Z,96.55
2023-05-14T01:13:19.946Z,96.66
2023-05-14T01:14:20.876Z,96.71
2023-05-14T01:15:21.789Z,96.81
2023-05-14T01:16:22.681Z,96.81
2023-05-14T01:17:23.577Z,96.61
2023-05-14T01:18:24.531Z,96.50
2023-05-14T01:19:25.404Z,96.50
2023-05-14T01:20:26.478Z,96.50
2023-05-14T01:21:26.923Z,96.50
2023-05-14T01:22:27.792Z,96.41
2023-05-14T01:23:28.662Z,96.50
2023-05-14T01:24:29.543Z,96.30
2023-05-14T01:25:30.430Z,96.20
2023-05-14T01:26:31.341Z,96.20
2023-05-14T01:27:32.189Z,96.14
2023-05-14T01:28:33.055Z,96.03
2023-05-14T01:29:33.974Z,96.03
2023-05-14T01:30:34.977Z,96.24
2023-05-14T01:31:35.837Z,96.14
2023-05-14T01:32:36.778Z,96.45
2023-05-14T01:33:37.646Z,96.49
2023-05-14T01:34:38.541Z,96.49
2023-05-14T01:35:39.421Z,96.39
2023-05-14T01:36:40.321Z,96.49
2023-05-14T01:37:41.188Z,96.59
2023-05-14T01:38:42.073Z,96.49
2023-05-14T01:39:42.947Z,96.39
2023-05-14T01:40:43.836Z,96.39
2023-05-14T01:41:44.705Z,96.49
2023-05-14T01:42:45.625Z,96.49
2023-05-14T01:43:46.475Z,96.39
2023-05-14T01:44:47.384Z,96.28
2023-05-14T01:45:48.283Z,96.18
2023-05-14T01:46:49.120Z,96.28
2023-05-14T01:47:50.087Z,96.28
2023-05-14T01:48:50.946Z,96.18
2023-05-14T01:49:51.821Z,96.28
2023-05-14T01:50:52.711Z,96.28
2023-05-14T01:51:53.581Z,96.28
2023-05-14T01:52:54.503Z,96.28
2023-05-14T01:53:55.374Z,96.28
2023-05-14T01:54:56.270Z,96.39
2023-05-14T01:55:57.192Z,96.18
2023-05-14T01:56:58.055Z,96.18
2023-05-14T01:57:58.961Z,96.18
2023-05-14T01:58:59.870Z,96.18
2023-05-14T02:00:00.725Z,96.28
2023-05-14T02:01:01.657Z,96.23
2023-05-14T02:02:02.561Z,96.02
2023-05-14T02:03:03.481Z,96.02
2023-05-14T02:04:04.406Z,96.02
2023-05-14T02:05:07.071Z,96.23
2023-05-14T02:06:06.010Z,96.23
2023-05-14T02:07:06.913Z,96.37
2023-05-14T02:08:07.776Z,96.48
2023-05-14T02:09:08.658Z,96.69
2023-05-14T02:10:09.537Z,96.79
2023-05-14T02:11:10.412Z,96.99
2023-05-14T02:12:11.298Z,97.09
2023-05-14T02:13:12.196Z,97.45
2023-05-14T02:14:13.061Z,97.55
2023-05-14T02:15:13.930Z,97.86
2023-05-14T02:16:14.932Z,97.97
2023-05-14T02:17:15.801Z,97.97
2023-05-14T02:18:16.689Z,98.18
2023-05-14T02:19:17.876Z,98.18
2023-05-14T02:20:18.134Z,98.18
2023-05-14T02:21:19.046Z,98.28
2023-05-14T02:22:19.942Z,98.18
2023-05-14T02:23:31.028Z,98.18
2023-05-14T02:24:22.592Z,98.18
2023-05-14T02:25:22.501Z,98.13
2023-05-14T02:26:23.375Z,97.92
2023-05-14T02:27:24.248Z,97.92
2023-05-14T02:28:25.126Z,98.07
2023-05-14T02:29:25.998Z,97.97
2023-05-14T02:30:26.887Z,97.82
2023-05-14T02:31:27.866Z,97.76
2023-05-14T02:32:28.824Z,97.55
2023-05-14T02:33:29.261Z,97.66
2023-05-14T02:34:30.109Z,97.76
2023-05-14T02:35:31.011Z,97.86
2023-05-14T02:36:31.894Z,97.86
2023-05-14T02:37:32.765Z,97.86
2023-05-14T02:38:33.655Z,97.76
2023-05-14T02:39:34.554Z,97.76
2023-05-14T02:40:35.459Z,97.76
2023-05-14T02:41:36.377Z,97.76
2023-05-14T02:42:37.247Z,97.66
2023-05-14T02:43:38.112Z,97.71
2023-05-14T02:44:39.004Z,97.81
2023-05-14T02:45:39.880Z,97.81
2023-05-14T02:46:40.859Z,97.71
2023-05-14T02:47:41.786Z,97.81
2023-05-14T02:48:42.648Z,98.01
2023-05-14T02:49:43.524Z,98.01
2023-05-14T02:50:44.405Z,98.01
2023-05-14T02:51:45.283Z,98.16
2023-05-14T02:52:46.161Z,98.27
2023-05-14T02:53:47.057Z,98.37
2023-05-14T02:54:47.982Z,98.37
2023-05-14T02:55:48.846Z,98.47
2023-05-14T02:56:49.721Z,98.57
2023-05-14T02:57:50.615Z,98.57
2023-05-14T02:58:51.510Z,98.47
2023-05-14T02:59:52.376Z,98.47
2023-05-14T03:00:53.297Z,98.47
2023-05-14T03:01:54.185Z,98.37
2023-05-14T03:02:54.969Z,98.37
2023-05-14T03:03:55.694Z,98.27
2023-05-14T03:04:56.552Z,98.16
2023-05-14T03:05:57.444Z,98.27
2023-05-14T03:06:58.307Z,98.27
2023-05-14T03:07:59.270Z,98.27
2023-05-14T03:09:00.108Z,98.16
2023-05-14T03:10:00.994Z,98.16
2023-05-14T03:11:01.874Z,98.06
2023-05-14T03:12:02.758Z,98.06
2023-05-14T03:13:03.643Z,98.06
2023-05-14T03:14:04.533Z,98.37
2023-05-14T03:15:05.429Z,98.37
2023-05-14T03:16:06.304Z,98.37
2023-05-14T03:17:07.239Z,98.37
2023-05-14T03:18:08.197Z,98.32
2023-05-14T03:19:09.146Z,98.43
2023-05-14T03:20:10.004Z,98.32
2023-05-14T03:21:10.789Z,98.22
2023-05-14T03:22:11.681Z,98.01
2023-05-14T03:23:12.582Z,97.81
2023-05-14T03:24:13.448Z,97.60
2023-05-14T03:25:14.325Z,97.39
2023-05-14T03:26:15.162Z,97.39
2023-05-14T03:27:16.038Z,97.29
2023-05-14T03:28:16.911Z,97.19
2023-05-14T03:29:17.794Z,97.08
2023-05-14T03:30:18.616Z,97.08
2023-05-14T03:31:19.531Z,97.19
2023-05-14T03:32:20.422Z,97.08
2023-05-14T03:33:21.203Z,96.98
2023-05-14T03:34:22.015Z,96.88
2023-05-14T03:35:22.833Z,96.98
2023-05-14T03:36:23.663Z,96.88
2023-05-14T03:37:24.500Z,96.88
2023-05-14T03:38:25.312Z,96.98
2023-05-14T03:39:26.175Z,96.88
2023-05-14T03:40:26.975Z,96.98
2023-05-14T03:41:27.822Z,96.98
2023-05-14T03:42:28.633Z,96.88
2023-05-14T03:43:29.459Z,96.77
2023-05-14T03:44:30.277Z,96.77
2023-05-14T03:45:31.138Z,97.08
2023-05-14T03:46:31.951Z,97.19
2023-05-14T03:47:32.791Z,97.19
2023-05-14T03:48:33.610Z,97.29
2023-05-14T03:49:34.412Z,97.39
2023-05-14T03:50:35.251Z,97.50
2023-05-14T03:51:36.098Z,97.50
2023-05-14T03:52:36.896Z,97.50
2023-05-14T03:53:37.722Z,97.39
2023-05-14T03:54:38.553Z,97.29
2023-05-14T03:55:39.382Z,97.23
2023-05-14T03:56:40.206Z,97.33
2023-05-14T03:57:41.040Z,97.44
2023-05-14T03:58:41.883Z,97.75
2023-05-14T03:59:42.726Z,97.54
2023-05-14T04:00:43.576Z,97.44
2023-05-14T04:01:44.370Z,97.64
2023-05-14T04:02:45.301Z,97.96
2023-05-14T04:03:46.385Z,97.96
2023-05-14T04:04:46.806Z,97.96
2023-05-14T04:05:47.606Z,97.96
2023-05-14T04:06:48.456Z,97.96
2023-05-14T04:07:49.313Z,97.85
2023-05-14T04:08:50.113Z,97.75
2023-05-14T04:09:50.933Z,97.75
2023-05-14T04:10:51.763Z,97.75
2023-05-14T04:11:52.588Z,97.75
2023-05-14T04:12:53.425Z,97.64
2023-05-14T04:13:54.271Z,97.64
2023-05-14T04:14:55.101Z,97.60
2023-05-14T04:15:56.003Z,97.50
2023-05-14T04:16:56.802Z,97.60
2023-05-14T04:17:57.784Z,97.60
2023-05-14T04:18:58.174Z,97.60
2023-05-14T04:19:58.962Z,97.71
2023-05-14T04:20:59.789Z,97.71
2023-05-14T04:22:00.612Z,97.60
2023-05-14T04:23:01.438Z,97.71
2023-05-14T04:24:02.284Z,97.71
2023-05-14T04:25:03.097Z,97.81
2023-05-14T04:26:03.925Z,97.91
2023-05-14T04:27:04.748Z,98.01
2023-05-14T04:28:05.746Z,98.01
2023-05-14T04:29:06.586Z,98.01
2023-05-14T04:30:07.439Z,98.01
2023-05-14T04:31:08.291Z,98.01
2023-05-14T04:32:09.165Z,97.97
2023-05-14T04:33:10.050Z,97.97
2023-05-14T04:34:10.848Z,98.18
2023-05-14T04:35:11.663Z,98.38
2023-05-14T04:36:12.505Z,98.38
2023-05-14T04:37:13.328Z,98.28
2023-05-14T04:38:14.161Z,98.18
2023-05-14T04:39:15.001Z,97.97
2023-05-14T04:40:15.825Z,97.66
2023-05-14T04:41:16.643Z,97.55
2023-05-14T04:42:17.509Z,97.66
2023-05-14T04:43:18.333Z,97.55
2023-05-14T04:44:19.178Z,97.66
2023-05-14T04:45:19.994Z,97.45
2023-05-14T04:46:20.869Z,97.25
2023-05-14T04:47:21.685Z,97.25
2023-05-14T04:48:22.527Z,97.14
2023-05-14T04:49:23.337Z,97.14
2023-05-14T04:50:24.373Z,97.14
2023-05-14T04:51:24.879Z,97.14
2023-05-14T04:52:25.715Z,97.25
2023-05-14T04:53:26.534Z,97.25
2023-05-14T04:54:27.404Z,97.25
2023-05-14T04:55:28.221Z,97.20
2023-05-14T04:56:29.055Z,97.30
2023-05-14T04:57:29.893Z,97.20
2023-05-14T04:58:32.838Z,97.30
2023-05-14T04:59:31.451Z,97.30
2023-05-14T05:00:32.317Z,97.20
2023-05-14T05:01:33.142Z,97.30
2023-05-14T05:02:33.997Z,97.20
2023-05-14T05:03:34.827Z,97.30
2023-05-14T05:04:35.602Z,97.41
2023-05-14T05:05:36.436Z,97.51
2023-05-14T05:06:37.277Z,97.72
2023-05-14T05:07:38.109Z,97.82
2023-05-14T05:08:38.931Z,98.02
2023-05-14T05:09:39.768Z,98.23
2023-05-14T05:10:40.588Z,98.13
2023-05-14T05:11:41.430Z,98.02
2023-05-14T05:12:42.272Z,98.02
2023-05-14T05:13:43.091Z,97.92
2023-05-14T05:14:43.904Z,97.92
2023-05-14T05:15:44.784Z,98.13
2023-05-14T05:16:45.565Z,98.02
2023-05-14T05:17:46.433Z,98.02
2023-05-14T05:18:47.281Z,97.88
2023-05-14T05:19:48.127Z,97.88
2023-05-14T05:20:48.960Z,97.88
2023-05-14T05:21:49.784Z,97.98
2023-05-14T05:22:50.612Z,98.08
2023-05-14T05:23:51.438Z,97.98
2023-05-14T05:24:52.277Z,98.08
2023-05-14T05:25:53.100Z,97.88
2023-05-14T05:26:53.912Z,97.67
2023-05-14T05:27:54.738Z,97.56
2023-05-14T05:28:55.566Z,97.26
2023-05-14T05:29:56.389Z,96.95
2023-05-14T05:30:57.251Z,96.95
2023-05-14T05:31:58.042Z,96.99
2023-05-14T05:32:58.885Z,96.99
2023-05-14T05:33:59.723Z,96.99
2023-05-14T05:35:00.529Z,97.09
2023-05-14T05:36:01.358Z,97.20
2023-05-14T05:37:02.165Z,97.51
2023-05-14T05:38:03.002Z,97.61
2023-05-14T05:39:03.850Z,97.67
2023-05-14T05:40:04.674Z,97.77
2023-05-14T05:41:05.500Z,97.98
2023-05-14T05:42:06.327Z,97.98
2023-05-14T05:43:07.147Z,98.08
2023-05-14T05:44:07.996Z,98.29
2023-05-14T05:45:08.838Z,98.60
2023-05-14T05:46:09.727Z,98.91
2023-05-14T05:47:10.591Z,98.80
2023-05-14T05:48:11.421Z,98.60
2023-05-14T05:49:12.345Z,98.60
2023-05-14T05:50:13.105Z,98.60
2023-05-14T05:51:13.943Z,98.86
2023-05-14T05:52:14.786Z,99.17
2023-05-14T05:53:15.616Z,99.17
2023-05-14T05:54:16.436Z,99.17
2023-05-14T05:55:17.276Z,99.07
2023-05-14T05:56:18.082Z,98.86
2023-05-14T05:57:18.927Z,98.76
2023-05-14T05:58:19.780Z,98.76
2023-05-14T05:59:20.584Z,98.50
2023-05-14T06:00:21.637Z,98.61
2023-05-14T06:01:22.055Z,98.50
2023-05-14T06:02:22.980Z,98.50
2023-05-14T06:03:23.819Z,98.61
2023-05-14T06:04:24.644Z,98.92
2023-05-14T06:05:25.507Z,98.61
2023-05-14T06:06:26.360Z,98.61
2023-05-14T06:07:27.197Z,98.61
2023-05-14T06:08:28.023Z,98.50
2023-05-14T06:09:28.834Z,98.50
2023-05-14T06:10:29.703Z,98.50
2023-05-14T06:11:30.510Z,98.50
2023-05-14T06:12:31.342Z,98.50
2023-05-14T06:13:32.176Z,98.71
2023-05-14T06:14:32.993Z,98.82
2023-05-14T06:15:33.827Z,98.61
2023-05-14T06:16:34.774Z,98.50
2023-05-14T06:17:35.612Z,98.50
2023-05-14T06:18:36.397Z,98.50
2023-05-14T06:19:37.218Z,98.57
2023-05-14T06:20:38.057Z,98.57
2023-05-14T06:21:38.890Z,98.57
2023-05-14T06:22:39.731Z,98.36
2023-05-14T06:23:40.536Z,98.15
2023-05-14T06:24:41.378Z,98.05
2023-05-14T06:25:42.191Z,98.05
2023-05-14T06:26:43.014Z,97.95
2023-05-14T06:27:43.843Z,98.05
2023-05-14T06:28:44.685Z,98.05
2023-05-14T06:29:45.498Z,98.05
2023-05-14T06:30:46.335Z,98.05
2023-05-14T06:31:47.240Z,97.95
2023-05-14T06:32:48.113Z,98.05
2023-05-14T06:33:48.966Z,98.05
2023-05-14T06:34:49.814Z,98.05
2023-05-14T06:35:50.630Z,98.00
2023-05-14T06:36:51.464Z,98.00
2023-05-14T06:37:52.271Z,97.90
2023-05-14T06:38:53.100Z,97.69
2023-05-14T06:39:54.743Z,97.60
2023-05-14T06:40:54.661Z,97.39
2023-05-14T06:41:55.482Z,97.28
2023-05-14T06:42:56.311Z,97.08
2023-05-14T06:43:57.132Z,96.93
2023-05-14T06:44:57.988Z,96.83
2023-05-14T06:45:58.804Z,96.83
2023-05-14T06:46:59.617Z,96.72
2023-05-14T06:48:00.529Z,96.83
2023-05-14T06:49:01.022Z,96.83
2023-05-14T06:50:01.939Z,97.03
2023-05-14T06:51:02.822Z,96.72
2023-05-14T06:52:03.630Z,96.47
2023-05-14T06:53:04.459Z,96.37
2023-05-14T06:54:05.294Z,96.17
2023-05-14T06:55:06.129Z,96.27
2023-05-14T06:56:06.945Z,96.27
2023-05-14T06:57:07.763Z,96.02
2023-05-14T06:58:08.587Z,95.92
2023-05-14T06:59:09.414Z,95.50
2023-05-14T07:00:10.240Z,95.40
2023-05-14T07:01:11.095Z,95.40
2023-05-14T07:02:11.921Z,95.15
2023-05-14T07:03:12.766Z,94.95
2023-05-14T07:04:13.633Z,94.95
2023-05-14T07:05:14.438Z,94.84
2023-05-14T07:06:15.230Z,94.80
2023-05-14T07:07:16.058Z,94.70
2023-05-14T07:08:16.885Z,94.49
2023-05-14T07:09:17.710Z,94.08
2023-05-14T07:10:18.529Z,93.63
2023-05-14T07:11:19.353Z,93.63
2023-05-14T07:12:20.192Z,93.32
2023-05-14T07:13:21.015Z,92.76
2023-05-14T07:14:21.837Z,92.35
2023-05-14T07:15:22.668Z,92.14
2023-05-14T07:16:23.504Z,91.94
2023-05-14T07:17:24.434Z,91.94
2023-05-14T07:18:24.973Z,91.80
2023-05-14T07:19:25.806Z,91.24
2023-05-14T07:20:26.957Z,90.54
2023-05-14T07:21:27.416Z,89.98
2023-05-14T07:22:28.250Z,88.37
2023-05-14T07:23:29.085Z,87.61
2023-05-14T07:24:29.908Z,86.00
2023-05-14T07:25:30.725Z,84.18
2023-05-14T07:26:31.584Z,82.78
2023-05-14T07:27:32.387Z,81.17
2023-05-14T07:28:33.197Z,79.61
2023-05-14T07:29:34.008Z,78.96
2023-05-14T07:30:34.840Z,77.50
2023-05-14T07:31:35.750Z,76.59
2023-05-14T07:32:36.534Z,76.14
2023-05-14T07:33:37.347Z,75.43
2023-05-14T07:34:38.161Z,75.98
2023-05-14T07:35:39.016Z,76.18
2023-05-14T07:36:39.821Z,75.87
2023-05-14T07:37:40.657Z,75.37
2023-05-14T07:38:41.467Z,75.26
2023-05-14T07:39:42.295Z,75.02
2023-05-14T07:40:43.121Z,72.85
2023-05-14T07:41:43.951Z,73.43
2023-05-14T07:42:44.765Z,72.69
2023-05-14T07:43:45.588Z,70.96
2023-05-14T07:44:46.425Z,72.48
2023-05-14T07:45:47.265Z,72.04
2023-05-14T07:46:48.087Z,71.13
2023-05-14T07:47:49.005Z,71.23
2023-05-14T07:48:49.813Z,70.59
2023-05-14T07:49:50.629Z,70.56
2023-05-14T07:50:51.462Z,70.65
2023-05-14T07:51:52.294Z,69.37
2023-05-14T07:52:53.092Z,67.82
2023-05-14T07:53:53.913Z,65.50
2023-05-14T07:54:54.754Z,66.41
2023-05-14T07:55:55.580Z,65.32
2023-05-14T07:56:56.415Z,66.94
2023-05-14T07:57:57.240Z,67.65
2023-05-14T07:58:58.062Z,68.16
2023-05-14T07:59:58.895Z,68.16
2023-05-14T08:00:59.717Z,67.05
2023-05-14T08:02:00.572Z,68.06
2023-05-14T08:03:01.523Z,67.38
2023-05-14T08:04:01.970Z,68.60
2023-05-14T08:05:02.399Z,68.19
2023-05-14T08:06:03.239Z,66.50
2023-05-14T08:07:04.045Z,67.72
2023-05-14T08:08:04.881Z,67.95
2023-05-14T08:09:05.702Z,67.58
2023-05-14T08:10:06.529Z,68.29
2023-05-14T08:11:07.367Z,69.71
2023-05-14T08:12:08.172Z,70.11
2023-05-14T08:13:09.005Z,69.95
2023-05-14T08:14:09.833Z,70.96
2023-05-14T08:15:10.657Z,71.36
2023-05-14T08:16:11.503Z,70.25
2023-05-14T08:17:12.403Z,69.84
2023-05-14T08:18:13.317Z,70.48
2023-05-14T08:19:14.434Z,71.30
2023-05-14T08:20:14.935Z,71.80
2023-05-14T08:21:15.786Z,71.94
2023-05-14T08:22:16.580Z,71.64
2023-05-14T08:23:17.414Z,71.43
2023-05-14T08:24:18.228Z,71.87
2023-05-14T08:25:19.063Z,72.78
2023-05-14T08:26:19.884Z,72.72
2023-05-14T08:27:20.706Z,72.41
2023-05-14T08:28:21.554Z,72.55
2023-05-14T08:29:22.395Z,72.75
2023-05-14T08:30:23.646Z,74.32
2023-05-14T08:31:24.163Z,75.43
2023-05-14T08:32:24.955Z,76.49
2023-05-14T08:33:25.781Z,77.30
2023-05-14T08:34:26.601Z,77.64
2023-05-14T08:35:27.440Z,77.95
2023-05-14T08:36:28.293Z,78.80
2023-05-14T08:37:29.107Z,79.11
2023-05-14T08:38:29.932Z,80.07
2023-05-14T08:39:30.753Z,80.37
2023-05-14T08:40:31.590Z,80.37
2023-05-14T08:41:32.406Z,80.68
2023-05-14T08:42:33.239Z,80.68
2023-05-14T08:43:34.051Z,80.71
2023-05-14T08:44:34.993Z,80.61
2023-05-14T08:45:35.847Z,80.10
2023-05-14T08:46:36.648Z,80.82
2023-05-14T08:47:37.493Z,81.43
2023-05-14T08:48:38.320Z,81.53
2023-05-14T08:49:39.120Z,82.04
2023-05-14T08:50:39.936Z,81.73
2023-05-14T08:51:40.795Z,81.77
2023-05-14T08:52:41.591Z,81.67
2023-05-14T08:53:42.422Z,81.77
2023-05-14T08:54:43.244Z,81.98
2023-05-14T08:55:44.096Z,81.98
2023-05-14T08:56:44.915Z,81.87
2023-05-14T08:57:45.745Z,82.18
2023-05-14T08:58:46.570Z,82.14
2023-05-14T08:59:47.391Z,82.04
2023-05-14T09:00:48.235Z,82.14
2023-05-14T09:01:49.264Z,81.32
2023-05-14T09:02:49.624Z,81.23
2023-05-14T09:03:50.490Z,81.39
2023-05-14T09:04:51.288Z,81.29
2023-05-14T09:05:52.132Z,80.88
2023-05-14T09:06:52.963Z,80.27
2023-05-14T09:07:53.765Z,80.47
2023-05-14T09:08:54.582Z,80.57
2023-05-14T09:09:55.463Z,79.66
2023-05-14T09:10:56.286Z,79.39
2023-05-14T09:11:57.110Z,79.39
2023-05-14T09:12:57.943Z,79.08
2023-05-14T09:13:58.785Z,78.77
2023-05-14T09:14:59.598Z,78.88
2023-05-14T09:16:00.447Z,78.77
2023-05-14T09:17:01.266Z,79.49
2023-05-14T09:18:02.248Z,78.77
2023-05-14T09:19:03.111Z,78.88
2023-05-14T09:20:03.929Z,80.00
2023-05-14T09:21:04.751Z,78.71
2023-05-14T09:22:05.593Z,79.22
2023-05-14T09:23:06.391Z,79.83
2023-05-14T09:24:07.225Z,79.43
2023-05-14T09:25:08.054Z,79.83
2023-05-14T09:26:08.871Z,79.32
2023-05-14T09:27:09.686Z,79.22
2023-05-14T09:28:10.552Z,79.12
2023-05-14T09:29:11.356Z,79.32
2023-05-14T09:30:12.230Z,79.05
2023-05-14T09:31:13.057Z,79.25
2023-05-14T09:32:13.855Z,79.57
2023-05-14T09:33:14.688Z,79.73
2023-05-14T09:34:15.511Z,80.04
2023-05-14T09:35:16.329Z,80.44
2023-05-14T09:36:17.150Z,80.34
2023-05-14T09:37:17.991Z,80.24
2023-05-14T09:38:18.810Z,80.24
2023-05-14T09:39:19.621Z,80.44
2023-05-14T09:40:20.521Z,79.52
2023-05-14T09:41:21.345Z,79.12
2023-05-14T09:42:22.181Z,78.91
2023-05-14T09:43:23.008Z,78.09
2023-05-14T09:44:23.833Z,78.50
2023-05-14T09:45:24.662Z,79.22
2023-05-14T09:46:25.484Z,80.65
2023-05-14T09:47:26.418Z,81.16
2023-05-14T09:48:27.260Z,80.24
2023-05-14T09:49:28.064Z,80.55
2023-05-14T09:50:28.889Z,80.96
2023-05-14T09:51:29.707Z,80.89
2023-05-14T09:52:30.558Z,80.79
2023-05-14T09:53:31.354Z,81.20
2023-05-14T09:54:32.176Z,81.20
2023-05-14T09:55:33.003Z,81.81
2023-05-14T09:56:33.827Z,81.71
2023-05-14T09:57:34.709Z,82.22
2023-05-14T09:58:35.516Z,82.83
2023-05-14T09:59:36.320Z,82.83
2023-05-14T10:00:37.153Z,82.73
2023-05-14T10:01:38.052Z,82.73
2023-05-14T10:02:39.035Z,82.53
2023-05-14T10:03:39.839Z,82.83
2023-05-14T10:04:40.768Z,82.93
2023-05-14T10:05:41.566Z,82.53
2023-05-14T10:06:42.394Z,82.12
2023-05-14T10:07:43.235Z,82.12
2023-05-14T10:08:44.043Z,81.51
2023-05-14T10:09:44.861Z,81.60
2023-05-14T10:10:45.701Z,81.51
2023-05-14T10:11:46.529Z,81.30
2023-05-14T10:12:47.359Z,81.37
2023-05-14T10:13:48.169Z,81.67
2023-05-14T10:14:49.005Z,81.87
2023-05-14T10:15:49.822Z,80.91
2023-05-14T10:16:50.786Z,81.23
2023-05-14T10:17:51.735Z,80.91
2023-05-14T10:18:53.245Z,80.47
2023-05-14T10:19:53.438Z,81.39
2023-05-14T10:20:54.272Z,81.15
2023-05-14T10:21:55.115Z,81.25
2023-05-14T10:22:55.968Z,79.62
2023-05-14T10:23:56.743Z,79.62
2023-05-14T10:24:57.576Z,79.62
2023-05-14T10:25:58.406Z,78.70
2023-05-14T10:26:59.241Z,77.68
2023-05-14T10:28:00.074Z,77.48
2023-05-14T10:29:00.884Z,78.09
2023-05-14T10:30:01.736Z,78.30
2023-05-14T10:31:02.569Z,77.48
2023-05-14T10:32:03.344Z,77.89
2023-05-14T10:33:04.225Z,78.91
2023-05-14T10:34:05.017Z,77.68
2023-05-14T10:35:05.858Z,76.87
2023-05-14T10:36:06.682Z,77.48
2023-05-14T10:37:07.499Z,77.68
2023-05-14T10:38:08.413Z,77.64
2023-05-14T10:39:09.188Z,76.97
2023-05-14T10:40:10.041Z,76.42
2023-05-14T10:41:10.836Z,76.87
2023-05-14T10:42:11.664Z,76.87
2023-05-14T10:43:12.496Z,76.83
2023-05-14T10:44:13.330Z,76.73
2023-05-14T10:45:14.153Z,77.03
2023-05-14T10:46:15.053Z,77.24
2023-05-14T10:47:15.898Z,77.34
2023-05-14T10:48:16.797Z,77.14
2023-05-14T10:49:25.742Z,77.64
2023-05-14T10:50:19.351Z,76.83
2023-05-14T10:51:19.237Z,77.03
2023-05-14T10:52:20.021Z,77.24
2023-05-14T10:53:20.873Z,77.14
2023-05-14T10:54:21.669Z,76.93
2023-05-14T10:55:22.495Z,77.03
2023-05-14T10:56:23.311Z,77.48
2023-05-14T10:57:24.161Z,77.89
2023-05-14T10:58:24.995Z,77.37
2023-05-14T10:59:25.809Z,77.89
2023-05-14T11:00:26.626Z,78.50
2023-05-14T11:01:27.467Z,78.80
2023-05-14T11:02:28.304Z,77.98
2023-05-14T11:03:29.146Z,77.89
2023-05-14T11:04:29.920Z,77.98
2023-05-14T11:05:30.768Z,77.27
2023-05-14T11:06:31.585Z,76.25
2023-05-14T11:07:32.426Z,77.37
2023-05-14T11:08:33.277Z,77.37
2023-05-14T11:09:34.064Z,77.78
2023-05-14T11:10:34.901Z,76.87
2023-05-14T11:11:35.731Z,76.25
2023-05-14T11:12:36.548Z,76.66
2023-05-14T11:13:37.359Z,76.97
2023-05-14T11:14:38.175Z,77.68
2023-05-14T11:15:39.007Z,77.68
2023-05-14T11:16:39.846Z,75.85
2023-05-14T11:17:40.718Z,76.35
2023-05-14T11:18:41.527Z,76.15
2023-05-14T11:19:42.311Z,76.05
2023-05-14T11:20:43.141Z,76.56
2023-05-14T11:21:43.992Z,77.48
2023-05-14T11:22:44.779Z,77.27
2023-05-14T11:23:45.626Z,77.37
2023-05-14T11:24:46.429Z,78.39
2023-05-14T11:25:47.310Z,77.78
2023-05-14T11:26:48.105Z,77.78
2023-05-14T11:27:48.924Z,78.09
2023-05-14T11:28:49.741Z,78.19
2023-05-14T11:29:50.559Z,78.30
2023-05-14T11:30:51.394Z,77.48
2023-05-14T11:31:52.271Z,77.27
2023-05-14T11:32:53.077Z,77.48
2023-05-14T11:33:53.878Z,78.50
2023-05-14T11:34:54.711Z,77.98
2023-05-14T11:35:55.539Z,77.98
2023-05-14T11:36:56.375Z,77.68
2023-05-14T11:37:57.192Z,77.37
2023-05-14T11:38:58.030Z,77.51
2023-05-14T11:39:58.856Z,78.02
2023-05-14T11:40:59.697Z,78.33
2023-05-14T11:42:00.503Z,78.84
2023-05-14T11:43:01.317Z,78.53
2023-05-14T11:44:02.139Z,78.84
2023-05-14T11:45:02.965Z,79.55
2023-05-14T11:46:03.819Z,79.14
2023-05-14T11:47:04.613Z,79.35
2023-05-14T11:48:05.496Z,79.25
2023-05-14T11:49:06.344Z,79.66
2023-05-14T11:50:09.277Z,79.86
2023-05-14T11:51:07.941Z,80.16
2023-05-14T11:52:08.772Z,80.27
2023-05-14T11:53:09.605Z,80.78
2023-05-14T11:54:10.463Z,80.68
2023-05-14T11:55:11.257Z,80.27
2023-05-14T11:56:12.083Z,79.66
2023-05-14T11:57:12.898Z,79.35
2023-05-14T11:58:13.735Z,79.55
2023-05-14T11:59:14.550Z,79.59
2023-05-14T12:00:15.459Z,79.90
2023-05-14T12:01:16.221Z,80.30
2023-05-14T12:02:17.094Z,80.82
2023-05-14T12:03:17.980Z,80.41
2023-05-14T12:04:18.950Z,79.90
2023-05-14T12:05:19.754Z,79.49
2023-05-14T12:06:20.579Z,79.90
2023-05-14T12:07:21.403Z,80.44
2023-05-14T12:08:22.239Z,80.34
2023-05-14T12:09:23.078Z,80.44
2023-05-14T12:10:24.188Z,80.65
2023-05-14T12:11:24.744Z,80.96
2023-05-14T12:12:25.570Z,80.85
2023-05-14T12:13:26.393Z,80.75
2023-05-14T12:14:27.213Z,80.75
2023-05-14T12:15:28.029Z,80.75
2023-05-14T12:16:28.902Z,80.65
2023-05-14T12:17:29.792Z,80.75
2023-05-14T12:18:30.724Z,80.55
2023-05-14T12:19:31.190Z,80.34
2023-05-14T12:20:31.990Z,80.28
2023-05-14T12:21:32.846Z,80.48
2023-05-14T12:22:35.127Z,80.48
2023-05-14T12:23:34.159Z,80.69
2023-05-14T12:24:35.001Z,80.89
2023-05-14T12:25:35.816Z,80.48
2023-05-14T12:26:36.630Z,80.69
2023-05-14T12:27:37.475Z,79.66
2023-05-14T12:28:38.786Z,79.46
2023-05-14T12:29:39.108Z,79.77
2023-05-14T12:30:39.953Z,79.57
2023-05-14T12:31:40.837Z,80.07
2023-05-14T12:32:41.709Z,80.48
2023-05-14T12:33:42.518Z,80.48
2023-05-14T12:34:43.328Z,80.48
2023-05-14T12:35:44.168Z,80.85
2023-05-14T12:36:44.983Z,81.10
2023-05-14T12:37:45.819Z,80.58
2023-05-14T12:38:46.622Z,80.48
2023-05-14T12:39:47.471Z,80.89
2023-05-14T12:40:48.276Z,80.69
2023-05-14T12:41:49.102Z,80.58
2023-05-14T12:42:49.930Z,80.38
2023-05-14T12:43:50.744Z,79.97
2023-05-14T12:44:51.585Z,80.07
2023-05-14T12:45:52.411Z,80.48
2023-05-14T12:46:53.293Z,81.10
2023-05-14T12:47:54.166Z,81.20
2023-05-14T12:48:54.939Z,80.28
2023-05-14T12:49:55.784Z,80.69
2023-05-14T12:50:56.607Z,80.99
2023-05-14T12:52:13.146Z,80.89
2023-05-14T12:52:59.156Z,81.71
2023-05-14T12:53:58.956Z,81.71
2023-05-14T12:54:59.805Z,81.10
2023-05-14T12:56:00.614Z,81.60
2023-05-14T12:57:01.432Z,81.40
2023-05-14T12:58:02.253Z,80.69
2023-05-14T12:59:03.082Z,81.30
2023-05-14T13:00:03.917Z,81.60
2023-05-14T13:01:04.782Z,82.53
2023-05-14T13:02:05.610Z,82.53
2023-05-14T13:03:06.492Z,82.53